Nearby METAR Reports

 

KCFV - Coffeyville, Kansas, USA
Distance from station: ENE 93mi, 150km
Updated: Sat, 23-Sep-2017 5:52am CDT
Clear
Clear
 Wind from calm
Wind: Calm
Temperature: 68°F , 20°C
Dew Point: 66°F , 19°C
Humidity: 94%
Barometer: 1014.9 hPa
Clouds: Clear
Visibility: 10 miles , 16 km
2017/09/23 10:52 KCFV 231052Z AUTO 00000KT 10SM CLR 20/19 A2997 RMK AO2 SLP141 T02000189
KIDP - Independence, Kansas, USA
Distance from station: NE 86mi, 138km
Updated: Sat, 23-Sep-2017 5:55am CDT
Clear
Clear
 Wind from calm
Wind: Calm
Temperature: 68°F , 20°C
Dew Point: 64°F , 18°C
Humidity: 88%
Barometer: 1015.2 hPa
Clouds: Clear
Visibility: 10 miles , 16 km
2017/09/23 10:55 KIDP 231055Z AUTO 00000KT 10SM CLR 20/18 A2998 RMK AO2 T01970182
KIAB - Mcconnell Afb, Kansas, USA
Distance from station: N 84mi, 135km
Updated: Sat, 23-Sep-2017 5:58am CDT
Clear
Clear
 Wind from S
Wind: S 6 mph , 9 km/h
Temperature: 72°F , 22°C
Dew Point: 64°F , 18°C
Humidity: 78%
Barometer: 1014.2 hPa
Clouds: Clear
Visibility: 10 miles , 16 km
2017/09/23 10:58 KIAB 231058Z AUTO 18005KT 10SM CLR 22/18 A2995 RMK AO2 SLPNO T02180176
 
KICT - Wichita, Kansas, USA
Distance from station: NNW 88mi, 142km
Updated: Sat, 23-Sep-2017 5:53am CDT
Few Clouds
Few Clouds
 Wind from SSE
Wind: SSE 8 mph , 13 km/h
Temperature: 72°F , 22°C
Dew Point: 66°F , 19°C
Humidity: 83%
Barometer: 1013.9 hPa
Clouds: Few Clouds
Visibility: 10 miles , 16 km
Cloud details: Few Clouds 25000 ft
2017/09/23 10:53 KICT 231053Z 15007KT 10SM FEW250 22/19 A2994 RMK AO2 SLP122 T02170189
KAAO - Wichita/Jabara, Kansas, USA
Distance from station: N 93mi, 149km
Updated: Sat, 23-Sep-2017 5:54am CDT
Clear
Clear
 Wind from SSE
Wind: SSE 7 mph , 11 km/h
Temperature: 70°F , 21°C
Dew Point: 66°F , 19°C
Humidity: 88%
Barometer: 1014.2 hPa
Clouds: Clear
Visibility: 10 miles , 16 km
2017/09/23 10:54 KAAO 231054Z AUTO 16006KT 10SM CLR 21/19 A2995 RMK AO2 SLP127 T02110194
KWLD - Winfield/Arkansa, Kansas, USA
Distance from station: N 52mi, 84km
Updated: Sat, 23-Sep-2017 5:54am CDT
Clear
Clear
 Wind from S
Wind: S 7 mph , 11 km/h
Temperature: 70°F , 21°C
Dew Point: 66°F , 19°C
Humidity: 88%
Barometer: 1014.6 hPa
Clouds: Clear
Visibility: 10 miles , 16 km
2017/09/23 10:54 KWLD 231054Z AUTO 17006KT 10SM CLR 21/19 A2996 RMK AO2 SLP134 T02110189 TSNO
 
KAVK - Alva, Oklahoma, USA
Distance from station: WNW 94mi, 152km
Updated: Sat, 23-Sep-2017 5:55am CDT
Mostly cloudy
Mostly cloudy
 Wind from S
Wind: S 9 mph , 15 km/h
Temperature: 70°F , 21°C
Dew Point: 64°F , 18°C
Humidity: 83%
Barometer: 1013.2 hPa
Clouds: Mostly cloudy
Visibility: 10 miles , 16 km
Cloud details: Mostly cloudy 8500 ft
2017/09/23 10:55 KAVK 231055Z AUTO 17008KT 10SM BKN085 21/18 A2992 RMK AO2
KBVO - Bartlesville, Oklahoma, USA
Distance from station: ENE 61mi, 98km
Updated: Thu, 21-Sep-2017 6:53pm CDT
NOT Current
Clear
Clear
 Wind from SSE
Wind: SSE 9 mph , 15 km/h
Temperature: 88°F , 31°C
Heat Index: 93°F , 34°C
Dew Point: 70°F , 21°C
Humidity: 55%
Barometer: 1010.8 hPa
Clouds: Clear
Visibility: 10 miles , 16 km
2017/09/21 23:53 KBVO 212353Z 16008KT 10SM CLR 31/21 A2985 RMK ZKCFD
KBKN - Blackwell, Oklahoma, USA
Distance from station: NW 29mi, 47km
Updated: Sat, 23-Sep-2017 5:55am CDT
Clear
Clear
 Wind from SSE
Wind: SSE 9 mph , 15 km/h
Temperature: 72°F , 22°C
Dew Point: 66°F , 19°C
Humidity: 83%
Barometer: 1014.6 hPa
Clouds: Clear
Visibility: 10 miles , 16 km
2017/09/23 10:55 KBKN 231055Z AUTO 15008KT 10SM CLR 22/19 A2996 RMK AO2
 
KGCM - Claremore, Oklahoma, USA
Distance from station: E 86mi, 138km
Updated: Sat, 23-Sep-2017 5:55am CDT
Clear
Clear
 Wind from ESE
Wind: ESE 5 mph , 7 km/h
Temperature: 70°F , 21°C
Dew Point: 64°F , 18°C
Humidity: 83%
Barometer: 1015.6 hPa
Clouds: Clear
Visibility: 10 miles , 16 km
2017/09/23 10:55 KGCM 231055Z AUTO 12004KT 10SM CLR 21/18 A2999 RMK AO2
KCQB - Chandler, Oklahoma, USA
Distance from station: SSE 50mi, 80km
Updated: Sat, 23-Sep-2017 5:50am CDT
Clear
Clear
 Wind from ESE
Wind: ESE 3 mph , 6 km/h
Temperature: 68°F , 20°C
Dew Point: 64°F , 18°C
Humidity: 88%
Barometer: 1014.6 hPa
Clouds: Clear
Visibility: 10 miles , 16 km
2017/09/23 10:50 KCQB 231050Z AUTO 12003KT 10SM CLR 20/18 A2996 RMK AO2 T01970183
KCUH - Cushing, Oklahoma, USA
Distance from station: SSE 35mi, 57km
Updated: Sat, 23-Sep-2017 5:55am CDT
Clear
Clear
 Wind from SSE
Wind: SSE 5 mph , 7 km/h
Temperature: 68°F , 20°C
Dew Point: 64°F , 18°C
Humidity: 88%
Barometer: 1014.2 hPa
Clouds: Clear
Visibility: 10 miles , 16 km
2017/09/23 10:55 KCUH 231055Z AUTO 16004KT 10SM CLR 20/18 A2995 RMK AO2 T02020180
 
KRQO - El Reno Muni, Oklahoma, USA
Distance from station: SW 85mi, 137km
Updated: Sat, 23-Sep-2017 5:55am CDT
Clear
Clear
 Wind from SSE
Wind: SSE 10 mph , 17 km/h
Temperature: 70°F , 21°C
Dew Point: 64°F , 18°C
Humidity: 83%
Barometer: 1014.6 hPa
Clouds: Clear
Visibility: 10 miles , 16 km
2017/09/23 10:55 KRQO 231055Z AUTO 16009KT 10SM CLR 21/18 A2996 RMK AO2 T02070183
KEND - Enid/Vance Afb, Oklahoma, USA
Distance from station: W 50mi, 81km
Updated: Sat, 23-Sep-2017 5:56am CDT
Clear
Clear
 Wind from SE
Wind: SE 9 mph , 15 km/h
Temperature: 70°F , 21°C
Dew Point: 64°F , 18°C
Humidity: 83%
Barometer: 1013.5 hPa
Clouds: Clear
Visibility: 10 miles , 16 km
2017/09/23 10:56 KEND 231056Z AUTO 13008KT 10SM CLR 21/18 A2993 RMK AO2 SLPNO T02140184 VISNO RWY35C $
KWDG - Enid/Woodring, Oklahoma, USA
Distance from station: W 42mi, 67km
Updated: Sat, 23-Sep-2017 5:55am CDT
Clear
Clear
 Wind from SE
Wind: SE 7 mph , 11 km/h
Temperature: 68°F , 20°C
Dew Point: 64°F , 18°C
Humidity: 88%
Barometer: 1013.2 hPa
Clouds: Clear
Visibility: 10 miles , 16 km
2017/09/23 10:55 KWDG 231055Z AUTO 14006KT 10SM CLR 20/18 A2992 RMK AO2
 
KGOK - Guthrie, Oklahoma, USA
Distance from station: SSW 44mi, 71km
Updated: Sat, 23-Sep-2017 5:53am CDT
Clear
Clear
 Wind from S
Wind: S 8 mph , 13 km/h
Temperature: 73°F , 23°C
Dew Point: 64°F , 18°C
Humidity: 74%
Barometer: 1013.9 hPa
Clouds: Clear
Visibility: 10 miles , 16 km
2017/09/23 10:53 KGOK 231053Z AUTO 18007KT 10SM CLR 23/18 A2994 RMK AO2 SLP126 T02280183
KOUN - Norman/Westheime, Oklahoma, USA
Distance from station: SSW 84mi, 136km
Updated: Sat, 23-Sep-2017 5:55am CDT
Clear
Clear
 Wind from SSE
Wind: SSE 6 mph , 9 km/h
Temperature: 68°F , 20°C
Dew Point: 64°F , 18°C
Humidity: 88%
Barometer: 1014.9 hPa
Clouds: Clear
Visibility: 10 miles , 16 km
2017/09/23 10:55 KOUN 231055Z AUTO 16005KT 10SM CLR 20/18 A2997 RMK AO2
KOKC - Oklahoma City, Oklahoma, USA
Distance from station: SSW 78mi, 126km
Updated: Sat, 23-Sep-2017 5:52am CDT
Clear
Clear
 Wind from SSE
Wind: SSE 8 mph , 13 km/h
Temperature: 68°F , 20°C
Dew Point: 64°F , 18°C
Humidity: 88%
Barometer: 1014.2 hPa
Clouds: Clear
Visibility: 10 miles , 16 km
2017/09/23 10:52 KOKC 231052Z 16007KT 10SM CLR 20/18 A2995 RMK AO2 SLP125 T02000183
 
KPWA - Okla City/Wiley, Oklahoma, USA
Distance from station: SSW 70mi, 113km
Updated: Sat, 23-Sep-2017 5:53am CDT
Clear
Clear
 Wind from S
Wind: S 10 mph , 17 km/h
Temperature: 72°F , 22°C
Dew Point: 66°F , 19°C
Humidity: 83%
Barometer: 1013.9 hPa
Clouds: Clear
Visibility: 10 miles , 16 km
2017/09/23 10:53 KPWA 231053Z AUTO 18009KT 10SM CLR 22/19 A2994 RMK AO2 SLP122 T02220189
KRCE - Okla City/Page, Oklahoma, USA
Distance from station: SW 78mi, 126km
Updated: Mon, 19-Jun-2017 2:35am CDT
NOT Current

 
2017/06/19 07:35 KRCE 190735Z AUTO RMK AO2
KOKM - Okmulgee, Oklahoma, USA
Distance from station: SE 79mi, 127km
Updated: Sat, 23-Sep-2017 5:55am CDT
Clear
Clear
 Wind from calm
Wind: Calm
Temperature: 66°F , 19°C
Dew Point: 66°F , 19°C
Humidity: 100%
Barometer: 1014.6 hPa
Clouds: Clear
Visibility: 10 miles , 16 km
2017/09/23 10:55 KOKM 231055Z AUTO 00000KT 10SM CLR 19/19 A2996 RMK AO2 T01860186
 
KPNC - Ponca City, Oklahoma, USA
Distance from station: N 22mi, 36km
Updated: Sat, 23-Sep-2017 5:53am CDT
Clear
Clear
 Wind from S
Wind: S 7 mph , 11 km/h
Temperature: 75°F , 24°C
Dew Point: 64°F , 18°C
Humidity: 69%
Barometer: 1013.9 hPa
Clouds: Clear
Visibility: 10 miles , 16 km
2017/09/23 10:53 KPNC 231053Z AUTO 18006KT 10SM CLR 24/18 A2994 RMK AO2 SLP125 T02390178
KSNL - Shawnee, Oklahoma, USA
Distance from station: S 74mi, 119km
Updated: Sat, 23-Sep-2017 5:55am CDT
Clear
Clear
 Wind from SSE
Wind: SSE 7 mph , 11 km/h
Temperature: 68°F , 20°C
Dew Point: 64°F , 18°C
Humidity: 88%
Barometer: 1014.6 hPa
Clouds: Clear
Visibility: 10 miles , 16 km
2017/09/23 10:55 KSNL 231055Z AUTO 16006KT 10SM CLR 20/18 A2996 RMK AO2 T02020178
KSWO - Stillwater, Oklahoma, USA
Distance from station: S 17mi, 28km
Updated: Sat, 23-Sep-2017 5:53am CDT
Clear
Clear
 Wind from SE
Wind: SE 7 mph , 11 km/h
Temperature: 70°F , 21°C
Dew Point: 63°F , 17°C
Humidity: 78%
Barometer: 1014.2 hPa
Clouds: Clear
Visibility: 10 miles , 16 km
2017/09/23 10:53 KSWO 231053Z AUTO 14006KT 10SM CLR 21/17 A2995 RMK AO2 SLP127 T02110172
 
KTIK - Tinker Afb, Oklahoma, USA
Distance from station: SSW 72mi, 115km
Updated: Sat, 23-Sep-2017 5:56am CDT
Clear
Clear
 Wind from S
Wind: S 12 mph , 19 km/h
Temperature: 70°F , 21°C
Dew Point: 64°F , 18°C
Humidity: 83%
Barometer: 1014.2 hPa
Clouds: Clear
Visibility: 10 miles , 16 km
2017/09/23 10:56 KTIK 231056Z AUTO 17010KT 10SM CLR 21/18 A2995 RMK AO2 SLPNO T02140182 $
KTUL - Tulsa, Oklahoma, USA
Distance from station: ESE 65mi, 105km
Updated: Sat, 23-Sep-2017 5:53am CDT
Clear
Clear
 Wind from SE
Wind: SE 6 mph , 9 km/h
Temperature: 70°F , 21°C
Dew Point: 66°F , 19°C
Humidity: 88%
Barometer: 1014.2 hPa
Clouds: Clear
Visibility: 10 miles , 16 km
2017/09/23 10:53 KTUL 231053Z 13005KT 10SM CLR 21/19 A2995 RMK AO2 SLP132 T02060194